createdAt,value
2023-03-29T00:01:11.549Z,92.99
2023-03-29T00:04:02.918Z,93.10
2023-03-29T00:06:33.435Z,93.08
2023-03-29T00:09:05.456Z,93.20
2023-03-29T00:11:34.595Z,93.32
2023-03-29T00:14:03.188Z,93.06
2023-03-29T00:16:32.242Z,93.14
2023-03-29T00:19:02.325Z,93.22
2023-03-29T00:21:31.420Z,93.17
2023-03-29T00:24:00.739Z,93.02
2023-03-29T00:26:29.425Z,93.14
2023-03-29T00:28:58.419Z,93.48
2023-03-29T00:31:27.652Z,93.35
2023-03-29T00:33:56.890Z,93.35
2023-03-29T00:36:27.877Z,93.22
2023-03-29T00:38:58.112Z,93.36
2023-03-29T00:41:27.271Z,93.29
2023-03-29T00:44:00.853Z,93.37
2023-03-29T00:46:32.562Z,93.42
2023-03-29T00:49:09.381Z,93.15
2023-03-29T00:51:43.523Z,93.34
2023-03-29T00:54:18.812Z,93.25
2023-03-29T00:56:51.693Z,93.06
2023-03-29T00:59:25.930Z,93.17
2023-03-29T01:01:59.935Z,93.21
2023-03-29T01:04:36.468Z,93.37
2023-03-29T01:07:14.021Z,93.40
2023-03-29T01:09:48.841Z,93.19
2023-03-29T01:12:23.618Z,93.30
2023-03-29T01:14:57.666Z,93.47
2023-03-29T01:17:26.652Z,93.37
2023-03-29T01:20:00.681Z,93.49
2023-03-29T01:22:45.133Z,92.97
2023-03-29T01:25:26.262Z,93.15
2023-03-29T01:28:03.733Z,93.22
2023-03-29T01:30:38.693Z,93.08
2023-03-29T01:33:21.290Z,93.13
2023-03-29T01:35:58.720Z,93.02
2023-03-29T01:38:32.168Z,93.11
2023-03-29T01:41:04.082Z,92.94
2023-03-29T01:43:43.097Z,92.91
2023-03-29T01:46:20.939Z,93.26
2023-03-29T01:48:56.042Z,92.81
2023-03-29T01:51:33.233Z,92.95
2023-03-29T01:54:09.587Z,93.07
2023-03-29T01:56:43.010Z,92.69
2023-03-29T01:59:18.345Z,92.29
2023-03-29T02:01:52.249Z,92.36
2023-03-29T02:04:29.149Z,92.53
2023-03-29T02:07:01.642Z,92.47
2023-03-29T02:09:32.088Z,92.34
2023-03-29T02:12:04.242Z,92.25
2023-03-29T02:14:36.527Z,92.28
2023-03-29T02:17:29.347Z,92.13
2023-03-29T02:20:09.617Z,92.17
2023-03-29T02:22:45.982Z,92.23
2023-03-29T02:25:17.712Z,92.07
2023-03-29T02:27:47.381Z,92.08
2023-03-29T02:30:20.828Z,91.98
2023-03-29T02:32:59.633Z,92.23
2023-03-29T02:35:36.467Z,92.35
2023-03-29T02:38:11.465Z,92.13
2023-03-29T02:40:42.931Z,92.18
2023-03-29T02:43:14.176Z,92.39
2023-03-29T02:45:45.790Z,92.58
2023-03-29T02:48:21.186Z,92.27
2023-03-29T02:50:57.565Z,92.35
2023-03-29T02:53:33.144Z,92.46
2023-03-29T02:56:04.233Z,92.31
2023-03-29T02:58:32.949Z,92.57
2023-03-29T03:01:06.807Z,92.70
2023-03-29T03:03:35.915Z,92.78
2023-03-29T03:06:06.323Z,92.52
2023-03-29T03:08:35.043Z,92.67
2023-03-29T03:11:03.896Z,92.46
2023-03-29T03:13:32.890Z,92.37
2023-03-29T03:16:03.359Z,92.73
2023-03-29T03:18:32.121Z,92.63
2023-03-29T03:21:02.510Z,92.39
2023-03-29T03:23:32.125Z,92.65
2023-03-29T03:26:00.838Z,92.48
2023-03-29T03:28:32.338Z,92.50
2023-03-29T03:31:03.718Z,92.57
2023-03-29T03:33:58.903Z,92.75
2023-03-29T03:36:42.193Z,92.63
2023-03-29T03:39:12.851Z,92.48
2023-03-29T03:41:41.899Z,92.40
2023-03-29T03:44:10.644Z,92.23
2023-03-29T03:46:41.652Z,92.36
2023-03-29T03:49:10.478Z,92.45
2023-03-29T03:51:42.019Z,92.38
2023-03-29T03:54:11.291Z,92.09
2023-03-29T03:56:39.992Z,92.02
2023-03-29T03:59:15.568Z,92.14
2023-03-29T04:02:08.436Z,92.20
2023-03-29T04:04:40.621Z,92.26
2023-03-29T04:07:14.474Z,92.53
2023-03-29T04:09:46.296Z,92.45
2023-03-29T04:12:24.874Z,92.46
2023-03-29T04:14:53.820Z,92.65
2023-03-29T04:17:25.321Z,92.22
2023-03-29T04:20:07.489Z,92.27
2023-03-29T04:22:36.355Z,92.24
2023-03-29T04:25:06.424Z,92.05
2023-03-29T04:27:50.867Z,91.54
2023-03-29T04:30:43.286Z,92.02
2023-03-29T04:33:36.461Z,92.33
2023-03-29T04:36:06.257Z,92.15
2023-03-29T04:38:38.087Z,92.12
2023-03-29T04:41:07.744Z,92.13
2023-03-29T04:43:58.439Z,91.96
2023-03-29T04:46:28.635Z,91.84
2023-03-29T04:49:27.918Z,91.81
2023-03-29T04:51:57.180Z,91.53
2023-03-29T04:54:29.816Z,91.83
2023-03-29T04:57:17.213Z,92.00
2023-03-29T05:00:15.345Z,91.79
2023-03-29T05:03:04.937Z,91.61
2023-03-29T05:05:38.649Z,91.48
2023-03-29T05:08:09.549Z,91.44
2023-03-29T05:11:02.056Z,91.64
2023-03-29T05:13:30.943Z,91.56
2023-03-29T05:16:00.762Z,91.22
2023-03-29T05:18:31.076Z,91.09
2023-03-29T05:21:01.893Z,91.44
2023-03-29T05:23:30.882Z,91.50
2023-03-29T05:26:20.298Z,91.56
2023-03-29T05:28:52.765Z,91.50
2023-03-29T05:31:21.619Z,91.41
2023-03-29T05:33:54.255Z,91.35
2023-03-29T05:36:24.830Z,91.39
2023-03-29T05:38:55.149Z,91.63
2023-03-29T05:41:25.774Z,91.48
2023-03-29T05:44:12.959Z,90.45
2023-03-29T05:46:44.335Z,90.31
2023-03-29T05:49:17.411Z,89.65
2023-03-29T05:52:11.091Z,90.35
2023-03-29T05:54:40.491Z,90.21
2023-03-29T05:57:09.641Z,89.87
2023-03-29T05:59:38.610Z,90.06
2023-03-29T06:02:07.616Z,90.25
2023-03-29T06:04:40.836Z,90.32
2023-03-29T06:07:26.199Z,90.79
2023-03-29T06:10:24.801Z,90.44
2023-03-29T06:13:00.230Z,90.24
2023-03-29T06:15:34.980Z,90.02
2023-03-29T06:18:07.681Z,89.91
2023-03-29T06:20:37.734Z,90.13
2023-03-29T06:23:13.269Z,90.06
2023-03-29T06:25:42.086Z,90.23
2023-03-29T06:28:11.973Z,89.97
2023-03-29T06:30:44.449Z,90.08
2023-03-29T06:33:14.444Z,89.84
2023-03-29T06:36:10.629Z,89.52
2023-03-29T06:38:41.854Z,90.11
2023-03-29T06:41:21.593Z,89.62
2023-03-29T06:44:08.926Z,89.13
2023-03-29T06:46:43.877Z,89.27
2023-03-29T06:49:12.674Z,89.54
2023-03-29T06:52:04.151Z,89.23
2023-03-29T06:54:35.243Z,89.31
2023-03-29T06:57:05.958Z,89.31
2023-03-29T06:59:35.841Z,89.70
2023-03-29T07:02:17.693Z,89.87
2023-03-29T07:04:49.866Z,89.97
2023-03-29T07:07:22.862Z,90.06
2023-03-29T07:10:09.981Z,90.08
2023-03-29T07:13:05.926Z,90.26
2023-03-29T07:15:34.983Z,90.09
2023-03-29T07:18:13.700Z,90.14
2023-03-29T07:20:42.665Z,89.56
2023-03-29T07:23:12.473Z,89.34
2023-03-29T07:25:45.348Z,89.26
2023-03-29T07:28:14.524Z,89.23
2023-03-29T07:30:43.350Z,89.67
2023-03-29T07:33:15.012Z,89.27
2023-03-29T07:35:56.253Z,89.47
2023-03-29T07:38:25.556Z,89.21
2023-03-29T07:41:08.766Z,89.34
2023-03-29T07:43:52.179Z,89.52
2023-03-29T07:46:25.664Z,89.17
2023-03-29T07:48:56.777Z,89.35
2023-03-29T07:51:26.984Z,89.85
2023-03-29T07:54:09.029Z,89.20
2023-03-29T07:56:39.115Z,88.88
2023-03-29T07:59:17.039Z,88.20
2023-03-29T08:01:50.415Z,88.51
2023-03-29T08:04:27.697Z,88.15
2023-03-29T08:07:17.702Z,88.51
2023-03-29T08:10:06.908Z,88.26
2023-03-29T08:13:07.402Z,88.83
2023-03-29T08:16:03.493Z,88.03
2023-03-29T08:18:36.990Z,88.28
2023-03-29T08:21:07.392Z,88.08
2023-03-29T08:23:36.172Z,88.48
2023-03-29T08:26:18.224Z,88.49
2023-03-29T08:28:50.085Z,88.51
2023-03-29T08:31:21.010Z,88.49
2023-03-29T08:33:49.942Z,89.07
2023-03-29T08:36:41.382Z,88.34
2023-03-29T08:39:21.669Z,88.69
2023-03-29T08:42:24.901Z,88.78
2023-03-29T08:45:09.504Z,88.49
2023-03-29T08:47:53.089Z,89.04
2023-03-29T08:50:26.711Z,89.36
2023-03-29T08:53:01.412Z,89.95
2023-03-29T08:55:58.892Z,89.24
2023-03-29T08:58:48.073Z,89.03
2023-03-29T09:01:18.453Z,89.16
2023-03-29T09:04:05.004Z,89.12
2023-03-29T09:06:57.957Z,89.23
2023-03-29T09:09:36.179Z,89.57
2023-03-29T09:12:26.914Z,89.61
2023-03-29T09:15:16.487Z,89.71
2023-03-29T09:18:09.472Z,89.62
2023-03-29T09:20:49.245Z,90.28
2023-03-29T09:23:48.418Z,89.92
2023-03-29T09:26:33.635Z,89.48
2023-03-29T09:29:42.284Z,89.68
2023-03-29T09:32:22.554Z,89.38
2023-03-29T09:35:14.300Z,89.48
2023-03-29T09:37:44.081Z,90.03
2023-03-29T09:40:17.002Z,89.62
2023-03-29T09:43:10.717Z,90.24
2023-03-29T09:45:42.025Z,90.44
2023-03-29T09:48:15.199Z,88.96
2023-03-29T09:50:52.723Z,89.28
2023-03-29T09:53:23.505Z,89.57
2023-03-29T09:56:03.270Z,88.40
2023-03-29T09:58:52.201Z,88.16
2023-03-29T10:01:21.871Z,87.72
2023-03-29T10:03:54.034Z,87.05
2023-03-29T10:06:26.995Z,86.79
2023-03-29T10:08:59.996Z,87.48
2023-03-29T10:11:37.058Z,86.99
2023-03-29T10:14:13.553Z,87.50
2023-03-29T10:16:46.362Z,87.89
2023-03-29T10:19:23.063Z,88.23
2023-03-29T10:21:56.945Z,87.79
2023-03-29T10:24:28.696Z,87.33
2023-03-29T10:27:01.716Z,87.12
2023-03-29T10:29:40.251Z,87.39
2023-03-29T10:32:27.773Z,87.79
2023-03-29T10:35:00.527Z,87.82
2023-03-29T10:37:30.678Z,87.83
2023-03-29T10:39:59.460Z,88.29
2023-03-29T10:42:29.425Z,88.29
2023-03-29T10:45:00.615Z,87.85
2023-03-29T10:47:35.086Z,88.26
2023-03-29T10:50:08.312Z,88.61
2023-03-29T10:52:41.077Z,88.39
2023-03-29T10:55:14.861Z,88.31
2023-03-29T10:58:00.228Z,88.38
2023-03-29T11:00:41.914Z,88.25
2023-03-29T11:03:41.364Z,88.82
2023-03-29T11:06:21.717Z,88.70
2023-03-29T11:09:00.462Z,88.63
2023-03-29T11:12:14.968Z,88.61
2023-03-29T11:14:59.972Z,89.59
2023-03-29T11:17:51.197Z,88.89
2023-03-29T11:20:34.501Z,88.68
2023-03-29T11:23:22.329Z,88.70
2023-03-29T11:26:06.240Z,88.72
2023-03-29T11:28:47.228Z,88.91
2023-03-29T11:31:32.237Z,88.72
2023-03-29T11:34:22.173Z,88.53
2023-03-29T11:37:01.122Z,88.67
2023-03-29T11:39:42.382Z,88.80
2023-03-29T11:42:21.488Z,88.67
2023-03-29T11:44:55.820Z,88.29
2023-03-29T11:47:31.418Z,87.95
2023-03-29T11:50:07.805Z,88.22
2023-03-29T11:52:42.017Z,88.25
2023-03-29T11:55:19.049Z,88.26
2023-03-29T11:57:56.684Z,88.03
2023-03-29T12:00:31.751Z,87.69
2023-03-29T12:03:08.185Z,88.12
2023-03-29T12:05:43.205Z,87.88
2023-03-29T12:08:19.899Z,88.21
2023-03-29T12:10:59.774Z,87.81
2023-03-29T12:13:35.371Z,87.83
2023-03-29T12:16:14.979Z,87.91
2023-03-29T12:18:47.746Z,87.91
2023-03-29T12:21:22.147Z,87.69
2023-03-29T12:23:53.196Z,87.92
2023-03-29T12:26:55.002Z,87.96
2023-03-29T12:30:07.609Z,87.84
2023-03-29T12:33:35.646Z,88.22
2023-03-29T12:37:06.526Z,87.77
2023-03-29T12:39:55.135Z,88.01
2023-03-29T12:42:49.722Z,87.87
2023-03-29T12:45:48.683Z,87.82
2023-03-29T12:48:21.630Z,87.57
2023-03-29T12:50:54.360Z,88.01
2023-03-29T12:53:27.282Z,87.57
2023-03-29T12:56:11.647Z,87.52
2023-03-29T12:58:55.088Z,87.25
2023-03-29T13:01:29.835Z,87.50
2023-03-29T13:04:23.507Z,87.53
2023-03-29T13:07:06.028Z,87.42
2023-03-29T13:09:51.190Z,87.11
2023-03-29T13:12:28.865Z,87.33
2023-03-29T13:15:02.162Z,87.36
2023-03-29T13:17:46.420Z,87.15
2023-03-29T13:20:42.305Z,86.95
2023-03-29T13:23:32.321Z,87.16
2023-03-29T13:26:35.691Z,87.28
2023-03-29T13:29:42.760Z,87.08
2023-03-29T13:32:33.931Z,87.54
2023-03-29T13:35:18.311Z,87.70
2023-03-29T13:38:05.254Z,87.55
2023-03-29T13:41:05.358Z,87.25
2023-03-29T13:43:38.167Z,87.53
2023-03-29T13:46:26.897Z,87.44
2023-03-29T13:49:05.540Z,87.61
2023-03-29T13:51:41.265Z,87.65
2023-03-29T13:54:24.789Z,87.40
2023-03-29T13:57:17.246Z,87.48
2023-03-29T13:59:56.196Z,87.39
2023-03-29T14:02:38.093Z,87.39
2023-03-29T14:05:13.939Z,87.31
2023-03-29T14:07:50.936Z,87.75
2023-03-29T14:10:25.719Z,87.95
2023-03-29T14:12:56.696Z,87.34
2023-03-29T14:15:36.222Z,87.74
2023-03-29T14:18:05.147Z,87.18
2023-03-29T14:20:34.977Z,87.48
2023-03-29T14:23:13.343Z,87.64
2023-03-29T14:25:43.651Z,87.83
2023-03-29T14:28:23.528Z,88.25
2023-03-29T14:30:53.735Z,88.22
2023-03-29T14:33:28.422Z,87.78
2023-03-29T14:35:59.829Z,87.71
2023-03-29T14:38:32.596Z,87.42
2023-03-29T14:41:04.582Z,87.34
2023-03-29T14:43:33.761Z,87.63
2023-03-29T14:46:07.840Z,87.21
2023-03-29T14:48:37.495Z,87.39
2023-03-29T14:51:07.607Z,87.38
2023-03-29T14:53:39.081Z,87.68
2023-03-29T14:56:13.309Z,87.31
2023-03-29T14:58:47.680Z,86.97
2023-03-29T15:01:19.656Z,86.54
2023-03-29T15:03:59.493Z,86.85
2023-03-29T15:06:31.070Z,87.09
2023-03-29T15:09:06.429Z,87.20
2023-03-29T15:11:36.722Z,87.49
2023-03-29T15:14:08.837Z,87.73
2023-03-29T15:16:41.902Z,87.91
2023-03-29T15:19:18.199Z,87.78
2023-03-29T15:21:49.552Z,87.84
2023-03-29T15:24:29.384Z,87.39
2023-03-29T15:27:06.207Z,87.59
2023-03-29T15:29:42.124Z,87.36
2023-03-29T15:32:21.202Z,87.38
2023-03-29T15:35:00.351Z,87.36
2023-03-29T15:37:30.100Z,87.08
2023-03-29T15:40:00.282Z,87.08
2023-03-29T15:42:29.045Z,87.19
2023-03-29T15:44:58.125Z,87.21
2023-03-29T15:47:27.610Z,87.17
2023-03-29T15:49:56.270Z,87.31
2023-03-29T15:52:25.238Z,86.99
2023-03-29T15:54:53.788Z,87.13
2023-03-29T15:57:24.125Z,86.54
2023-03-29T15:59:54.890Z,86.63
2023-03-29T16:02:26.424Z,86.62
2023-03-29T16:04:55.405Z,86.33
2023-03-29T16:07:24.070Z,86.58
2023-03-29T16:09:52.851Z,86.50
2023-03-29T16:12:21.875Z,86.46
2023-03-29T16:14:51.890Z,86.84
2023-03-29T16:17:20.813Z,87.03
2023-03-29T16:19:49.657Z,87.06
2023-03-29T16:22:26.099Z,87.36
2023-03-29T16:24:54.851Z,87.63
2023-03-29T16:27:23.536Z,88.02
2023-03-29T16:29:53.582Z,88.33
2023-03-29T16:32:22.337Z,88.33
2023-03-29T16:34:51.152Z,88.58
2023-03-29T16:37:19.968Z,88.49
2023-03-29T16:39:48.620Z,88.81
2023-03-29T16:44:46.015Z,89.25
2023-03-29T16:47:16.383Z,89.25
2023-03-29T16:49:48.619Z,89.09
2023-03-29T16:52:17.319Z,88.90
2023-03-29T16:54:46.973Z,89.20
2023-03-29T16:57:15.713Z,89.46
2023-03-29T16:59:47.476Z,89.44
2023-03-29T17:02:17.536Z,89.22
2023-03-29T17:04:46.405Z,89.18
2023-03-29T17:07:15.137Z,89.41
2023-03-29T17:09:45.931Z,89.68
2023-03-29T17:12:14.621Z,89.45
2023-03-29T17:14:43.606Z,89.44
2023-03-29T17:17:12.348Z,89.45
2023-03-29T17:19:42.544Z,89.30
2023-03-29T17:22:11.371Z,89.42
2023-03-29T17:24:40.037Z,89.32
2023-03-29T17:27:08.837Z,89.29
2023-03-29T17:29:37.442Z,89.35
2023-03-29T17:32:07.001Z,89.35
2023-03-29T17:34:35.763Z,89.23
2023-03-29T17:37:05.885Z,88.31
2023-03-29T17:39:37.595Z,88.06
2023-03-29T17:42:09.963Z,87.94
2023-03-29T17:44:38.770Z,87.78
2023-03-29T17:47:07.582Z,87.37
2023-03-29T17:49:36.349Z,86.86
2023-03-29T17:52:06.490Z,87.13
2023-03-29T17:54:35.106Z,86.69
2023-03-29T17:57:04.577Z,86.67
2023-03-29T17:59:33.281Z,86.18
2023-03-29T18:02:05.380Z,86.51
2023-03-29T18:04:34.845Z,85.94
2023-03-29T18:07:03.421Z,85.90
2023-03-29T18:09:33.842Z,86.14
2023-03-29T18:12:02.661Z,86.18
2023-03-29T18:14:31.310Z,85.89
2023-03-29T18:17:00.169Z,85.72
2023-03-29T18:19:29.140Z,86.06
2023-03-29T18:21:57.854Z,86.16
2023-03-29T18:24:27.633Z,86.21
2023-03-29T18:26:57.674Z,86.18
2023-03-29T18:29:26.966Z,86.30
2023-03-29T18:31:55.573Z,86.20
2023-03-29T18:34:24.279Z,86.10
2023-03-29T18:36:53.722Z,85.88
2023-03-29T18:39:22.348Z,85.40
2023-03-29T18:41:51.448Z,85.23
2023-03-29T18:44:27.330Z,85.04
2023-03-29T18:46:56.401Z,85.15
2023-03-29T18:49:25.818Z,85.27
2023-03-29T18:51:55.575Z,84.59
2023-03-29T18:54:24.248Z,84.23
2023-03-29T18:56:52.970Z,83.98
2023-03-29T18:59:23.145Z,84.02
2023-03-29T19:01:51.751Z,83.93
2023-03-29T19:04:20.950Z,83.86
2023-03-29T19:06:49.868Z,83.85
2023-03-29T19:09:18.663Z,84.03
2023-03-29T19:11:48.110Z,83.66
2023-03-29T19:14:17.507Z,84.19
2023-03-29T19:16:50.852Z,83.79
2023-03-29T19:19:19.804Z,83.18
2023-03-29T19:21:50.089Z,83.21
2023-03-29T19:24:19.159Z,83.03
2023-03-29T19:26:48.047Z,83.15
2023-03-29T19:29:16.965Z,83.32
2023-03-29T19:31:46.256Z,83.42
2023-03-29T19:34:19.710Z,83.56
2023-03-29T19:36:49.180Z,84.08
2023-03-29T19:39:17.960Z,83.97
2023-03-29T19:41:47.719Z,83.81
2023-03-29T19:44:16.434Z,84.02
2023-03-29T19:46:45.147Z,84.12
2023-03-29T19:49:15.849Z,83.89
2023-03-29T19:51:48.027Z,84.25
2023-03-29T19:54:18.353Z,84.14
2023-03-29T19:56:47.209Z,84.16
2023-03-29T19:59:17.859Z,84.16
2023-03-29T20:01:51.324Z,83.95
2023-03-29T20:04:27.624Z,83.94
2023-03-29T20:06:57.614Z,83.85
2023-03-29T20:09:26.431Z,83.93
2023-03-29T20:11:55.146Z,84.31
2023-03-29T20:14:24.127Z,84.42
2023-03-29T20:16:54.190Z,84.65
2023-03-29T20:19:25.277Z,84.33
2023-03-29T20:21:57.623Z,84.26
2023-03-29T20:24:26.776Z,84.30
2023-03-29T20:26:55.514Z,84.33
2023-03-29T20:29:24.209Z,84.44
2023-03-29T20:31:52.853Z,84.54
2023-03-29T20:34:21.601Z,84.31
2023-03-29T20:36:55.256Z,84.35
2023-03-29T20:39:25.776Z,83.97
2023-03-29T20:41:54.749Z,83.91
2023-03-29T20:44:26.249Z,84.09
2023-03-29T20:47:02.401Z,83.64
2023-03-29T20:49:37.124Z,83.50
2023-03-29T20:52:12.543Z,83.41
2023-03-29T20:54:41.655Z,83.24
2023-03-29T20:57:14.177Z,83.00
2023-03-29T20:59:43.213Z,82.86
2023-03-29T21:02:14.752Z,82.78
2023-03-29T21:04:44.127Z,82.89
2023-03-29T21:07:17.190Z,82.94
2023-03-29T21:09:47.346Z,83.37
2023-03-29T21:12:16.043Z,83.21
2023-03-29T21:14:44.765Z,83.33
2023-03-29T21:17:14.226Z,83.21
2023-03-29T21:19:42.852Z,82.83
2023-03-29T21:22:13.750Z,83.05
2023-03-29T21:24:43.732Z,82.68
2023-03-29T21:27:12.390Z,82.78
2023-03-29T21:29:41.042Z,82.77
2023-03-29T21:32:10.830Z,82.50
2023-03-29T21:34:39.696Z,82.14
2023-03-29T21:37:08.406Z,81.85
2023-03-29T21:39:37.070Z,82.22
2023-03-29T21:42:07.538Z,82.09
2023-03-29T21:44:36.231Z,81.87
2023-03-29T21:47:05.114Z,82.32
2023-03-29T21:49:33.698Z,82.42
2023-03-29T21:52:02.380Z,82.27
2023-03-29T21:54:31.026Z,82.38
2023-03-29T21:56:59.677Z,82.07
2023-03-29T21:59:30.140Z,82.06
2023-03-29T22:01:58.869Z,81.77
2023-03-29T22:04:36.591Z,81.38
2023-03-29T22:07:08.363Z,81.29
2023-03-29T22:09:37.031Z,81.56
2023-03-29T22:12:06.812Z,80.96
2023-03-29T22:14:37.525Z,80.82
2023-03-29T22:17:12.218Z,80.97
2023-03-29T22:19:41.807Z,81.25
2023-03-29T22:22:14.091Z,80.97
2023-03-29T22:24:43.607Z,80.56
2023-03-29T22:27:12.861Z,80.64
2023-03-29T22:29:42.838Z,80.95
2023-03-29T22:32:11.556Z,81.02
2023-03-29T22:34:40.547Z,80.56
2023-03-29T22:37:09.125Z,80.68
2023-03-29T22:39:38.111Z,80.54
2023-03-29T22:42:07.247Z,80.81
2023-03-29T22:44:36.127Z,81.26
2023-03-29T22:47:06.230Z,81.26
2023-03-29T22:49:35.279Z,81.21
2023-03-29T22:52:03.933Z,81.02
2023-03-29T22:54:32.847Z,80.57
2023-03-29T22:57:01.539Z,80.09
2023-03-29T22:59:30.431Z,79.66
2023-03-29T23:01:59.143Z,80.01
2023-03-29T23:04:29.252Z,80.16
2023-03-29T23:06:58.488Z,80.14
2023-03-29T23:09:27.141Z,80.16
2023-03-29T23:11:55.784Z,80.34
2023-03-29T23:14:24.394Z,79.55
2023-03-29T23:16:53.032Z,79.69
2023-03-29T23:19:21.628Z,79.67
2023-03-29T23:21:52.808Z,80.14
2023-03-29T23:24:21.412Z,79.92
2023-03-29T23:26:50.213Z,80.29
2023-03-29T23:29:18.934Z,79.90
2023-03-29T23:31:47.776Z,79.77
2023-03-29T23:34:16.561Z,80.13
2023-03-29T23:36:45.177Z,79.51
2023-03-29T23:39:16.146Z,79.53
2023-03-29T23:41:44.741Z,79.33
2023-03-29T23:44:13.438Z,79.59
2023-03-29T23:46:42.426Z,79.80
2023-03-29T23:49:11.137Z,79.86
2023-03-29T23:51:42.631Z,79.20
2023-03-29T23:54:12.045Z,79.60
2023-03-29T23:56:42.232Z,79.32
2023-03-29T23:59:11.022Z,79.61
